createdAt,value
2019-01-09T00:01:32.263Z,90.94
2019-01-09T00:06:36.648Z,91.38
2019-01-09T00:11:41.077Z,91.97
2019-01-09T00:16:45.424Z,92.39
2019-01-09T00:21:49.810Z,92.08
2019-01-09T00:26:55.156Z,91.40
2019-01-09T00:31:59.563Z,91.29
2019-01-09T00:37:04.006Z,91.05
2019-01-09T00:42:08.373Z,91.51
2019-01-09T00:47:12.734Z,91.51
2019-01-09T00:52:17.140Z,90.04
2019-01-09T00:57:21.511Z,90.95
2019-01-09T01:02:31.728Z,91.49
2019-01-09T01:07:55.746Z,89.85
2019-01-09T01:13:26.022Z,91.44
2019-01-09T01:18:54.217Z,90.66
2019-01-09T01:24:27.667Z,91.07
2019-01-09T01:30:03.956Z,90.96
2019-01-09T01:35:32.663Z,92.39
2019-01-09T01:40:55.241Z,91.98
2019-01-09T01:46:05.473Z,92.34
2019-01-09T01:51:22.861Z,92.04
2019-01-09T01:56:30.470Z,91.73
2019-01-09T02:01:40.594Z,92.13
2019-01-09T02:06:48.239Z,91.68
2019-01-09T02:12:04.678Z,92.38
2019-01-09T02:17:35.920Z,91.56
2019-01-09T02:23:18.375Z,91.13
2019-01-09T02:28:29.586Z,92.24
2019-01-09T02:33:33.967Z,92.23
2019-01-09T02:38:38.307Z,92.30
2019-01-09T02:43:42.680Z,93.01
2019-01-09T02:48:48.528Z,92.02
2019-01-09T02:53:53.185Z,92.49
2019-01-09T02:58:57.580Z,92.82
2019-01-09T03:04:01.880Z,93.11
2019-01-09T03:09:06.289Z,92.66
2019-01-09T03:14:10.636Z,91.65
2019-01-09T03:19:15.056Z,92.07
2019-01-09T03:24:19.425Z,91.94
2019-01-09T03:29:23.794Z,91.52
2019-01-09T03:34:28.189Z,91.90
2019-01-09T03:39:32.543Z,92.31
2019-01-09T03:44:36.911Z,92.08
2019-01-09T03:49:41.251Z,92.52
2019-01-09T03:54:45.616Z,91.76
2019-01-09T03:59:49.972Z,92.83
2019-01-09T04:04:54.403Z,93.56
2019-01-09T04:09:58.764Z,93.01
2019-01-09T04:15:04.507Z,91.89
2019-01-09T04:20:08.862Z,90.80
2019-01-09T04:25:14.938Z,91.87
2019-01-09T04:30:19.248Z,92.56
2019-01-09T04:35:23.622Z,92.80
2019-01-09T04:40:27.983Z,93.17
2019-01-09T04:45:32.314Z,93.69
2019-01-09T04:50:36.679Z,93.91
2019-01-09T04:55:41.059Z,93.65
2019-01-09T05:00:45.427Z,93.65
2019-01-09T05:05:49.773Z,92.56
2019-01-09T05:10:54.162Z,93.38
2019-01-09T05:15:59.405Z,93.65
2019-01-09T05:21:03.742Z,94.11
2019-01-09T05:26:08.082Z,92.71
2019-01-09T05:31:12.417Z,93.83
2019-01-09T05:36:16.849Z,94.28
2019-01-09T05:41:21.200Z,94.13
2019-01-09T05:46:25.589Z,94.46
2019-01-09T05:51:29.946Z,94.90
2019-01-09T05:56:34.384Z,94.45
2019-01-09T06:01:38.755Z,94.21
2019-01-09T06:06:43.096Z,94.26
2019-01-09T06:11:47.489Z,94.38
2019-01-09T06:16:51.865Z,95.03
2019-01-09T06:21:56.239Z,95.76
2019-01-09T06:27:00.641Z,94.11
2019-01-09T06:32:04.977Z,94.25
2019-01-09T06:37:09.370Z,95.16
2019-01-09T06:42:13.743Z,94.66
2019-01-09T06:47:19.060Z,94.44
2019-01-09T06:52:23.429Z,93.78
2019-01-09T06:57:27.818Z,94.73
2019-01-09T07:02:32.197Z,94.45
2019-01-09T07:07:36.538Z,95.02
2019-01-09T07:12:40.887Z,94.53
2019-01-09T07:17:45.267Z,93.90
2019-01-09T07:22:49.626Z,95.00
2019-01-09T07:27:54.001Z,94.69
2019-01-09T07:32:58.361Z,94.55
2019-01-09T07:38:02.714Z,94.75
2019-01-09T07:43:07.051Z,94.36
2019-01-09T07:48:11.390Z,94.59
2019-01-09T07:53:15.761Z,94.63
2019-01-09T07:58:20.119Z,93.82
2019-01-09T08:03:24.496Z,94.37
2019-01-09T08:08:28.882Z,94.07
2019-01-09T08:13:33.424Z,94.55
2019-01-09T08:18:37.902Z,94.19
2019-01-09T08:23:42.247Z,93.28
2019-01-09T08:28:46.592Z,94.62
2019-01-09T08:33:51.000Z,94.29
2019-01-09T08:38:55.474Z,94.02
2019-01-09T08:43:59.880Z,94.01
2019-01-09T08:49:04.267Z,95.40
2019-01-09T08:54:08.658Z,94.84
2019-01-09T08:59:12.994Z,93.98
2019-01-09T09:04:17.305Z,94.74
2019-01-09T09:09:21.842Z,93.79
2019-01-09T09:14:26.471Z,95.28
2019-01-09T09:19:30.835Z,94.58
2019-01-09T09:24:35.239Z,94.75
2019-01-09T09:29:39.692Z,93.65
2019-01-09T09:34:44.203Z,94.88
2019-01-09T09:39:48.590Z,94.04
2019-01-09T09:44:53.024Z,93.74
2019-01-09T09:49:57.399Z,94.22
2019-01-09T09:55:01.736Z,94.14
2019-01-09T10:00:09.245Z,94.98
2019-01-09T10:05:13.729Z,95.00
2019-01-09T10:10:18.119Z,94.11
2019-01-09T10:15:22.760Z,94.29
2019-01-09T10:20:27.149Z,94.35
2019-01-09T10:25:31.514Z,95.46
2019-01-09T10:30:35.931Z,93.99
2019-01-09T10:35:40.236Z,93.23
2019-01-09T10:40:44.714Z,94.59
2019-01-09T10:45:49.084Z,94.14
2019-01-09T10:50:53.390Z,94.47
2019-01-09T10:55:57.733Z,94.51
2019-01-09T11:01:02.095Z,94.66
2019-01-09T11:06:06.520Z,94.02
2019-01-09T11:11:10.879Z,94.83
2019-01-09T11:16:15.298Z,95.78
2019-01-09T11:21:19.643Z,95.31
2019-01-09T11:26:24.056Z,94.07
2019-01-09T11:31:28.401Z,94.81
2019-01-09T11:36:32.798Z,96.01
2019-01-09T11:41:38.207Z,94.62
2019-01-09T11:46:42.641Z,94.78
2019-01-09T11:51:46.979Z,94.91
2019-01-09T11:56:51.318Z,96.23
2019-01-09T12:01:55.742Z,96.40
2019-01-09T12:07:00.100Z,95.89
2019-01-09T12:12:04.477Z,95.93
2019-01-09T12:17:08.813Z,94.53
2019-01-09T12:22:13.196Z,95.19
2019-01-09T12:27:17.517Z,95.53
2019-01-09T12:32:21.855Z,95.55
2019-01-09T12:37:26.218Z,94.54
2019-01-09T12:42:31.533Z,95.70
2019-01-09T12:47:35.875Z,95.07
2019-01-09T12:52:40.380Z,94.05
2019-01-09T12:57:44.714Z,94.37
2019-01-09T13:02:49.083Z,95.31
2019-01-09T13:07:53.441Z,95.97
2019-01-09T13:12:57.881Z,96.33
2019-01-09T13:18:02.258Z,94.71
2019-01-09T13:23:06.630Z,95.51
2019-01-09T13:28:10.988Z,95.03
2019-01-09T13:33:15.336Z,94.55
2019-01-09T13:38:19.719Z,94.16
2019-01-09T13:43:24.091Z,95.07
2019-01-09T13:48:28.435Z,96.35
2019-01-09T13:53:32.811Z,95.17
2019-01-09T13:58:37.233Z,95.73
2019-01-09T14:03:41.585Z,95.96
2019-01-09T14:08:45.937Z,96.90
2019-01-09T14:13:50.293Z,95.61
2019-01-09T14:18:55.453Z,96.02
2019-01-09T14:24:00.080Z,96.34
2019-01-09T14:29:04.803Z,95.90
2019-01-09T14:34:09.175Z,96.08
2019-01-09T14:39:13.547Z,95.44
2019-01-09T14:44:17.883Z,95.62
2019-01-09T14:49:22.223Z,96.32
2019-01-09T14:54:26.605Z,96.93
2019-01-09T14:59:30.971Z,95.70
2019-01-09T15:04:35.375Z,95.85
2019-01-09T15:09:39.831Z,95.73
2019-01-09T15:14:44.165Z,96.13
2019-01-09T15:19:48.545Z,95.47
2019-01-09T15:24:52.883Z,96.77
2019-01-09T15:29:57.278Z,96.21
2019-01-09T15:35:01.725Z,96.24
2019-01-09T15:40:12.195Z,96.03
2019-01-09T15:45:16.731Z,96.11
2019-01-09T15:50:23.119Z,96.06
2019-01-09T15:55:27.602Z,96.23
2019-01-09T16:00:35.070Z,97.17
2019-01-09T16:05:39.489Z,96.54
2019-01-09T16:10:43.865Z,96.28
2019-01-09T16:15:48.215Z,96.26
2019-01-09T16:20:53.587Z,96.19
2019-01-09T16:25:57.975Z,95.42
2019-01-09T16:31:05.487Z,95.47
2019-01-09T16:36:09.844Z,96.48
2019-01-09T16:41:14.280Z,95.86
2019-01-09T16:46:18.696Z,96.08
2019-01-09T16:51:23.037Z,96.22
2019-01-09T16:56:27.406Z,96.24
2019-01-09T17:01:31.737Z,96.11
2019-01-09T17:06:36.102Z,95.49
2019-01-09T17:11:40.491Z,95.67
2019-01-09T17:16:44.801Z,96.12
2019-01-09T17:21:49.164Z,96.12
2019-01-09T17:26:53.496Z,96.06
2019-01-09T17:31:57.901Z,97.45
2019-01-09T17:37:02.364Z,96.25
2019-01-09T17:42:06.982Z,96.71
2019-01-09T17:47:11.524Z,97.10
2019-01-09T17:52:15.923Z,96.82
2019-01-09T17:57:20.351Z,96.31
2019-01-09T18:02:24.694Z,96.79
2019-01-09T18:07:29.061Z,95.93
2019-01-09T18:12:33.516Z,96.25
2019-01-09T18:17:37.875Z,96.70
2019-01-09T18:22:42.222Z,97.01
2019-01-09T18:27:46.562Z,97.01
2019-01-09T18:32:54.081Z,96.76
2019-01-09T18:38:01.614Z,96.42
2019-01-09T18:43:31.806Z,97.46
2019-01-09T18:48:39.321Z,96.83
2019-01-09T18:53:43.695Z,97.36
2019-01-09T18:58:48.203Z,95.96
2019-01-09T19:03:52.855Z,96.56
2019-01-09T19:08:57.209Z,96.97
2019-01-09T19:14:01.622Z,96.53
2019-01-09T19:19:06.092Z,97.15
2019-01-09T19:24:10.521Z,96.65
2019-01-09T19:29:14.912Z,96.93
2019-01-09T19:34:19.477Z,96.91
2019-01-09T19:39:24.866Z,97.16
2019-01-09T19:44:29.302Z,97.85
2019-01-09T19:49:33.799Z,98.07
2019-01-09T19:54:38.143Z,98.09
2019-01-09T19:59:42.587Z,97.35
2019-01-09T20:04:46.980Z,98.28
2019-01-09T20:09:51.494Z,98.66
2019-01-09T20:14:55.954Z,98.16
2019-01-09T20:20:00.392Z,97.67
2019-01-09T20:25:06.866Z,98.15
2019-01-09T20:30:17.076Z,98.30
2019-01-09T20:35:21.614Z,97.00
2019-01-09T20:40:26.093Z,97.77
2019-01-09T20:45:30.571Z,98.30
2019-01-09T20:50:35.061Z,97.96
2019-01-09T20:55:39.754Z,97.37
2019-01-09T21:00:44.308Z,98.33
2019-01-09T21:05:49.807Z,98.05
2019-01-09T21:10:54.622Z,97.59
2019-01-09T21:15:59.235Z,97.77
2019-01-09T21:21:03.852Z,97.67
2019-01-09T21:26:08.223Z,97.71
2019-01-09T21:31:12.834Z,97.82
2019-01-09T21:36:17.273Z,97.08
2019-01-09T21:41:21.647Z,97.83
2019-01-09T21:46:26.026Z,97.91
2019-01-09T21:51:31.523Z,98.18
2019-01-09T21:56:35.895Z,98.35
2019-01-09T22:01:40.293Z,98.62
2019-01-09T22:06:44.730Z,98.74
2019-01-09T22:11:49.082Z,99.10
2019-01-09T22:16:53.597Z,99.48
2019-01-09T22:21:58.259Z,98.80
2019-01-09T22:27:03.564Z,98.39
2019-01-09T22:32:07.939Z,99.12
2019-01-09T22:37:12.289Z,99.23
2019-01-09T22:42:16.922Z,99.00
2019-01-09T22:47:21.272Z,99.09
2019-01-09T22:52:25.713Z,99.35
2019-01-09T22:57:30.078Z,99.00
2019-01-09T23:02:34.412Z,99.31
2019-01-09T23:07:38.885Z,99.31
2019-01-09T23:12:43.358Z,99.22
2019-01-09T23:17:47.796Z,99.01
2019-01-09T23:22:52.202Z,98.57
2019-01-09T23:27:56.597Z,99.05
2019-01-09T23:33:01.140Z,98.54
2019-01-09T23:38:05.769Z,98.46
2019-01-09T23:43:10.122Z,98.05
2019-01-09T23:48:14.485Z,98.68
2019-01-09T23:53:18.830Z,98.32
2019-01-09T23:58:23.435Z,98.36
